CSZ9329 ZGSZ-ZHHH
Flight info
| Callsign | CSZ9329 |
|---|---|
| Flight time | N/A |
| Altitude | 24600 |
| Route | MIPAG1 MIPAG W21 TEPID W22 YIN A461 BUBDA/K0852S1040 W56 REBIS/K0852S1070 W56 UPMAT UPMAT2T |
| Aircraft | B738/M-SDE2E3FGHIRWXY/LB1 |
Departure
| Time | 2026-04-30 06:24 |
|---|---|
| Airport | Shenzhen Bao'an International Airport (ZGSZ) |
Arrival
| Time | N/A |
|---|---|
| Airport | Wuhan Tianhe International Airport (ZHHH) |
| Time | Latitude | Longitude | Altitude | Speed | Heading |
|---|---|---|---|---|---|
| 2026-04-30 06:12 | 22.63956 | 113.79768 | 21 ft | 2 kts | 73° |
| 2026-04-30 06:12 | 22.63953 | 113.79754 | 21 ft | 2 kts | 91° |
| 2026-04-30 06:12 | 22.63956 | 113.79738 | 21 ft | 2 kts | 114° |
| 2026-04-30 06:13 | 22.63965 | 113.79724 | 21 ft | 2 kts | 137° |
| 2026-04-30 06:13 | 22.63973 | 113.79717 | 21 ft | 0 kts | 152° |
| 2026-04-30 06:13 | 22.63979 | 113.79714 | 21 ft | 0 kts | 155° |
| 2026-04-30 06:15 | 22.63961 | 113.79723 | 21 ft | 5 kts | 154° |
| 2026-04-30 06:16 | 22.63912 | 113.79750 | 21 ft | 11 kts | 153° |
| 2026-04-30 06:16 | 22.63847 | 113.79784 | 21 ft | 8 kts | 162° |
| 2026-04-30 06:16 | 22.63789 | 113.79761 | 21 ft | 9 kts | 235° |
| 2026-04-30 06:16 | 22.63760 | 113.79704 | 21 ft | 7 kts | 242° |
| 2026-04-30 06:17 | 22.63722 | 113.79665 | 21 ft | 9 kts | 196° |
| 2026-04-30 06:17 | 22.63652 | 113.79688 | 21 ft | 11 kts | 153° |
| 2026-04-30 06:17 | 22.63583 | 113.79726 | 21 ft | 10 kts | 152° |
| 2026-04-30 06:17 | 22.63520 | 113.79762 | 21 ft | 9 kts | 152° |
| 2026-04-30 06:18 | 22.63452 | 113.79797 | 21 ft | 12 kts | 154° |
| 2026-04-30 06:18 | 22.63379 | 113.79837 | 21 ft | 11 kts | 153° |
| 2026-04-30 06:18 | 22.63299 | 113.79881 | 21 ft | 13 kts | 153° |
| 2026-04-30 06:18 | 22.63207 | 113.79932 | 21 ft | 16 kts | 153° |
| 2026-04-30 06:19 | 22.63104 | 113.79988 | 21 ft | 16 kts | 153° |
| 2026-04-30 06:19 | 22.63010 | 113.80040 | 21 ft | 14 kts | 153° |
| 2026-04-30 06:19 | 22.62917 | 113.80090 | 21 ft | 16 kts | 153° |
| 2026-04-30 06:19 | 22.62831 | 113.80138 | 21 ft | 11 kts | 153° |
| 2026-04-30 06:20 | 22.62762 | 113.80176 | 21 ft | 10 kts | 153° |
| 2026-04-30 06:20 | 22.62692 | 113.80213 | 21 ft | 12 kts | 153° |
| 2026-04-30 06:20 | 22.62596 | 113.80267 | 21 ft | 16 kts | 153° |
| 2026-04-30 06:20 | 22.62502 | 113.80310 | 21 ft | 12 kts | 177° |
| 2026-04-30 06:21 | 22.62449 | 113.80267 | 21 ft | 0 kts | 243° |
| 2026-04-30 06:22 | 22.62439 | 113.80244 | 21 ft | 6 kts | 244° |
| 2026-04-30 06:22 | 22.62418 | 113.80189 | 21 ft | 8 kts | 267° |
| 2026-04-30 06:22 | 22.62448 | 113.80130 | 21 ft | 10 kts | 326° |
| 2026-04-30 06:23 | 22.62468 | 113.80118 | 21 ft | 0 kts | 333° |
| 2026-04-30 06:23 | 22.62513 | 113.80093 | 21 ft | 30 kts | 333° |
| 2026-04-30 06:23 | 22.62928 | 113.79869 | 21 ft | 100 kts | 333° |
| 2026-04-30 06:23 | 22.63745 | 113.79421 | 21 ft | 158 kts | 334° |
| 2026-04-30 06:24 | 22.64835 | 113.78797 | 334 ft | 180 kts | 332° |
| 2026-04-30 06:24 | 22.65870 | 113.78204 | 1337 ft | 163 kts | 334° |
| 2026-04-30 06:24 | 22.66864 | 113.77484 | 1714 ft | 184 kts | 318° |
| 2026-04-30 06:24 | 22.67694 | 113.76399 | 2219 ft | 192 kts | 310° |
| 2026-04-30 06:25 | 22.68596 | 113.75278 | 2643 ft | 204 kts | 318° |
| 2026-04-30 06:25 | 22.69696 | 113.74257 | 3052 ft | 215 kts | 323° |
| 2026-04-30 06:25 | 22.70890 | 113.73212 | 3462 ft | 228 kts | 321° |
| 2026-04-30 06:25 | 22.72157 | 113.72025 | 3879 ft | 244 kts | 319° |
| 2026-04-30 06:26 | 22.73403 | 113.70789 | 4683 ft | 244 kts | 317° |
| 2026-04-30 06:26 | 22.74628 | 113.69558 | 5473 ft | 244 kts | 316° |
| 2026-04-30 06:26 | 22.75975 | 113.68376 | 6053 ft | 254 kts | 330° |
| 2026-04-30 06:26 | 22.77713 | 113.67803 | 6504 ft | 272 kts | 353° |
| 2026-04-30 06:27 | 22.79615 | 113.68122 | 7093 ft | 284 kts | 18° |
| 2026-04-30 06:27 | 22.81445 | 113.69012 | 7739 ft | 291 kts | 23° |
| 2026-04-30 06:27 | 22.83246 | 113.69968 | 8397 ft | 294 kts | 22° |
| 2026-04-30 06:27 | 22.85144 | 113.70920 | 9059 ft | 298 kts | 21° |
| 2026-04-30 06:28 | 22.87060 | 113.71815 | 9725 ft | 300 kts | 17° |
| 2026-04-30 06:28 | 22.89049 | 113.72438 | 10326 ft | 301 kts | 4° |
| 2026-04-30 06:28 | 22.91143 | 113.72365 | 10736 ft | 305 kts | 343° |
| 2026-04-30 06:28 | 22.93121 | 113.71523 | 11343 ft | 305 kts | 327° |
| 2026-04-30 06:29 | 22.94847 | 113.70233 | 11964 ft | 305 kts | 317° |
| 2026-04-30 06:29 | 22.96340 | 113.68583 | 12633 ft | 305 kts | 307° |
| 2026-04-30 06:29 | 22.97632 | 113.66771 | 13306 ft | 306 kts | 304° |
| 2026-04-30 06:29 | 22.98882 | 113.64892 | 13928 ft | 310 kts | 303° |
| 2026-04-30 06:30 | 23.00160 | 113.62985 | 14587 ft | 313 kts | 304° |
| 2026-04-30 06:30 | 23.01459 | 113.61095 | 15232 ft | 317 kts | 304° |
| 2026-04-30 06:30 | 23.02807 | 113.59172 | 15869 ft | 320 kts | 305° |
| 2026-04-30 06:30 | 23.04164 | 113.57252 | 16478 ft | 324 kts | 305° |
| 2026-04-30 06:31 | 23.05523 | 113.55338 | 17113 ft | 326 kts | 305° |
| 2026-04-30 06:31 | 23.06911 | 113.53381 | 17723 ft | 329 kts | 304° |
| 2026-04-30 06:31 | 23.08325 | 113.51384 | 18297 ft | 332 kts | 305° |
| 2026-04-30 06:31 | 23.09739 | 113.49383 | 18861 ft | 336 kts | 305° |
| 2026-04-30 06:32 | 23.11176 | 113.47398 | 19388 ft | 340 kts | 308° |
| 2026-04-30 06:32 | 23.12910 | 113.45623 | 19932 ft | 347 kts | 320° |
| 2026-04-30 06:32 | 23.15003 | 113.44237 | 20453 ft | 355 kts | 332° |
| 2026-04-30 06:32 | 23.17351 | 113.43331 | 20957 ft | 362 kts | 343° |
| 2026-04-30 06:33 | 23.19856 | 113.42942 | 21446 ft | 370 kts | 354° |
| 2026-04-30 06:33 | 23.22441 | 113.43093 | 21927 ft | 377 kts | 6° |
| 2026-04-30 06:33 | 23.25030 | 113.43803 | 22396 ft | 385 kts | 17° |
| 2026-04-30 06:33 | 23.27521 | 113.44970 | 22893 ft | 389 kts | 23° |
| 2026-04-30 06:34 | 23.29893 | 113.46390 | 23342 ft | 394 kts | 28° |
| 2026-04-30 06:34 | 23.32297 | 113.47923 | 23797 ft | 396 kts | 24° |
| 2026-04-30 06:34 | 23.34843 | 113.49111 | 24237 ft | 395 kts | 14° |
| 2026-04-30 06:34 | 23.37550 | 113.49773 | 24607 ft | 393 kts | 2° |
| 2026-04-30 06:35 | 23.40253 | 113.49657 | 24632 ft | 387 kts | 344° |
| 2026-04-30 06:35 | 23.42749 | 113.48659 | 24634 ft | 376 kts | 328° |
| 2026-04-30 06:35 | 23.44936 | 113.47113 | 24634 ft | 373 kts | 320° |
| 2026-04-30 06:35 | 23.46925 | 113.45299 | 24630 ft | 372 kts | 315° |
| 2026-04-30 06:36 | 23.48821 | 113.43395 | 24628 ft | 372 kts | 315° |
| 2026-04-30 06:36 | 23.50842 | 113.41622 | 24627 ft | 374 kts | 323° |
| 2026-04-30 06:36 | 23.53112 | 113.40224 | 24628 ft | 379 kts | 334° |
| 2026-04-30 06:36 | 23.55634 | 113.39301 | 24629 ft | 382 kts | 343° |
| 2026-04-30 06:37 | 23.58246 | 113.38814 | 24632 ft | 384 kts | 351° |
| 2026-04-30 06:37 | 23.60922 | 113.38675 | 24633 ft | 386 kts | 357° |
| 2026-04-30 06:37 | 23.63634 | 113.38743 | 24631 ft | 388 kts | 359° |
| 2026-04-30 06:37 | 23.66318 | 113.38894 | 24630 ft | 389 kts | 0° |
| 2026-04-30 06:38 | 23.69052 | 113.39072 | 24630 ft | 388 kts | 0° |
| 2026-04-30 06:38 | 23.71732 | 113.39243 | 24629 ft | 388 kts | 360° |
| 2026-04-30 06:38 | 23.74444 | 113.39402 | 24628 ft | 388 kts | 360° |
| 2026-04-30 06:38 | 23.77160 | 113.39550 | 24628 ft | 387 kts | 359° |
| 2026-04-30 06:39 | 23.79854 | 113.39687 | 24632 ft | 387 kts | 359° |
| 2026-04-30 06:39 | 23.82516 | 113.39817 | 24635 ft | 387 kts | 359° |
| 2026-04-30 06:39 | 23.85215 | 113.39945 | 24637 ft | 387 kts | 359° |
| 2026-04-30 06:39 | 23.87912 | 113.40070 | 24640 ft | 387 kts | 359° |
| 2026-04-30 06:40 | 23.90612 | 113.40195 | 24643 ft | 387 kts | 359° |
| 2026-04-30 06:40 | 23.93318 | 113.40318 | 24647 ft | 387 kts | 359° |
| 2026-04-30 06:40 | 23.96022 | 113.40443 | 24651 ft | 386 kts | 359° |
| 2026-04-30 06:40 | 23.98691 | 113.40565 | 24657 ft | 387 kts | 359° |
| 2026-04-30 06:41 | 24.01415 | 113.40690 | 24661 ft | 387 kts | 359° |
| 2026-04-30 06:41 | 24.04087 | 113.40813 | 24664 ft | 387 kts | 359° |
| 2026-04-30 06:41 | 24.06786 | 113.40937 | 24663 ft | 387 kts | 359° |
| 2026-04-30 06:41 | 24.09487 | 113.41061 | 24661 ft | 387 kts | 359° |
| 2026-04-30 06:42 | 24.12190 | 113.41186 | 24660 ft | 386 kts | 359° |
| 2026-04-30 06:42 | 24.14856 | 113.41309 | 24661 ft | 385 kts | 359° |
| 2026-04-30 06:42 | 24.17537 | 113.41432 | 24660 ft | 385 kts | 359° |
| 2026-04-30 06:42 | 24.20227 | 113.41553 | 24658 ft | 385 kts | 359° |
| 2026-04-30 06:43 | 24.22906 | 113.41653 | 24658 ft | 385 kts | 358° |
| 2026-04-30 06:43 | 24.25589 | 113.41741 | 24655 ft | 386 kts | 358° |
| 2026-04-30 06:43 | 24.28292 | 113.41826 | 24652 ft | 386 kts | 358° |
| 2026-04-30 06:43 | 24.30993 | 113.41910 | 24659 ft | 386 kts | 358° |
| 2026-04-30 06:44 | 24.33648 | 113.41994 | 24670 ft | 386 kts | 358° |
| 2026-04-30 06:44 | 24.36349 | 113.42078 | 24680 ft | 386 kts | 358° |
| 2026-04-30 06:44 | 24.39041 | 113.42154 | 24683 ft | 385 kts | 358° |
| 2026-04-30 06:44 | 24.41732 | 113.42225 | 24682 ft | 385 kts | 358° |
| 2026-04-30 06:45 | 24.44402 | 113.42296 | 24684 ft | 384 kts | 358° |
| 2026-04-30 06:45 | 24.47068 | 113.42374 | 24687 ft | 384 kts | 358° |
| 2026-04-30 06:45 | 24.49748 | 113.42456 | 24690 ft | 385 kts | 358° |
| 2026-04-30 06:45 | 24.52452 | 113.42542 | 24691 ft | 384 kts | 358° |
| 2026-04-30 06:46 | 24.55114 | 113.42627 | 24693 ft | 385 kts | 358° |
| 2026-04-30 06:46 | 24.57798 | 113.42712 | 24692 ft | 384 kts | 358° |
| 2026-04-30 06:46 | 24.60453 | 113.42797 | 24689 ft | 384 kts | 358° |
| 2026-04-30 06:46 | 24.63160 | 113.42883 | 24687 ft | 384 kts | 358° |
| 2026-04-30 06:47 | 24.65807 | 113.42966 | 24687 ft | 384 kts | 358° |
| 2026-04-30 06:47 | 24.68483 | 113.43050 | 24687 ft | 383 kts | 358° |
| 2026-04-30 06:47 | 24.71147 | 113.43126 | 24686 ft | 383 kts | 357° |
| 2026-04-30 06:47 | 24.73843 | 113.43198 | 24680 ft | 384 kts | 357° |
| 2026-04-30 06:48 | 24.76491 | 113.43269 | 24677 ft | 384 kts | 357° |
| 2026-04-30 06:48 | 24.79165 | 113.43340 | 24680 ft | 384 kts | 357° |
| 2026-04-30 06:48 | 24.81848 | 113.43411 | 24684 ft | 383 kts | 357° |
| 2026-04-30 06:48 | 24.84509 | 113.43484 | 24685 ft | 383 kts | 357° |
| 2026-04-30 06:49 | 24.87186 | 113.43555 | 24685 ft | 384 kts | 357° |
| 2026-04-30 06:49 | 24.89862 | 113.43628 | 24686 ft | 383 kts | 357° |
| 2026-04-30 06:49 | 24.92535 | 113.43701 | 24686 ft | 382 kts | 357° |
| 2026-04-30 06:49 | 24.95204 | 113.43774 | 24689 ft | 383 kts | 357° |
| 2026-04-30 06:50 | 24.97854 | 113.43847 | 24692 ft | 382 kts | 357° |
| 2026-04-30 06:50 | 25.00536 | 113.43921 | 24692 ft | 381 kts | 357° |
| 2026-04-30 06:50 | 25.03155 | 113.43993 | 24695 ft | 381 kts | 356° |
| 2026-04-30 06:50 | 25.05815 | 113.44064 | 24698 ft | 382 kts | 356° |
| 2026-04-30 06:51 | 25.08484 | 113.44136 | 24697 ft | 383 kts | 356° |
| 2026-04-30 06:51 | 25.11185 | 113.44210 | 24697 ft | 381 kts | 357° |
| 2026-04-30 06:51 | 25.13818 | 113.44282 | 24702 ft | 382 kts | 357° |
| 2026-04-30 06:51 | 25.16486 | 113.44356 | 24700 ft | 382 kts | 356° |
| 2026-04-30 06:52 | 25.19159 | 113.44428 | 24697 ft | 382 kts | 356° |
| 2026-04-30 06:52 | 25.21794 | 113.44501 | 24701 ft | 382 kts | 356° |
| 2026-04-30 06:52 | 25.24462 | 113.44573 | 24702 ft | 383 kts | 356° |
| 2026-04-30 06:52 | 25.27132 | 113.44647 | 24701 ft | 382 kts | 356° |
| 2026-04-30 06:53 | 25.29817 | 113.44721 | 24701 ft | 381 kts | 356° |
| 2026-04-30 06:53 | 25.32474 | 113.44795 | 24701 ft | 381 kts | 356° |
| 2026-04-30 06:53 | 25.35103 | 113.44867 | 24703 ft | 381 kts | 356° |
| 2026-04-30 06:53 | 25.37761 | 113.44940 | 24702 ft | 381 kts | 356° |
| 2026-04-30 06:54 | 25.40411 | 113.45013 | 24703 ft | 380 kts | 356° |
| 2026-04-30 06:54 | 25.43063 | 113.45086 | 24705 ft | 381 kts | 356° |
| 2026-04-30 06:54 | 25.45713 | 113.45158 | 24706 ft | 381 kts | 356° |
| 2026-04-30 06:54 | 25.48374 | 113.45234 | 24703 ft | 380 kts | 356° |
| 2026-04-30 06:55 | 25.51010 | 113.45309 | 24706 ft | 381 kts | 356° |
| 2026-04-30 06:55 | 25.53669 | 113.45387 | 24706 ft | 381 kts | 356° |
| 2026-04-30 06:55 | 25.56328 | 113.45465 | 24704 ft | 380 kts | 356° |
| 2026-04-30 06:55 | 25.58985 | 113.45544 | 24707 ft | 381 kts | 356° |
| 2026-04-30 06:56 | 25.61659 | 113.45622 | 24706 ft | 381 kts | 355° |
| 2026-04-30 06:56 | 25.64278 | 113.45700 | 24704 ft | 378 kts | 356° |
| 2026-04-30 06:56 | 25.66917 | 113.45778 | 24706 ft | 379 kts | 356° |
| 2026-04-30 06:56 | 25.69549 | 113.45854 | 24706 ft | 380 kts | 356° |
| 2026-04-30 06:57 | 25.72208 | 113.45932 | 24706 ft | 380 kts | 355° |
| 2026-04-30 06:57 | 25.74868 | 113.46010 | 24706 ft | 379 kts | 355° |
| 2026-04-30 06:57 | 25.77521 | 113.46088 | 24705 ft | 379 kts | 355° |
| 2026-04-30 06:57 | 25.80170 | 113.46165 | 24704 ft | 379 kts | 355° |
| 2026-04-30 06:58 | 25.82800 | 113.46242 | 24700 ft | 379 kts | 355° |
| 2026-04-30 06:58 | 25.85461 | 113.46320 | 24703 ft | 380 kts | 355° |
| 2026-04-30 06:58 | 25.88102 | 113.46378 | 24699 ft | 378 kts | 354° |
| 2026-04-30 06:58 | 25.90723 | 113.46337 | 24699 ft | 375 kts | 352° |
| 2026-04-30 06:59 | 25.93337 | 113.46230 | 24696 ft | 374 kts | 352° |
| 2026-04-30 06:59 | 25.95943 | 113.46098 | 24693 ft | 376 kts | 351° |
| 2026-04-30 06:59 | 25.98553 | 113.45968 | 24692 ft | 376 kts | 351° |
| 2026-04-30 06:59 | 26.01181 | 113.45846 | 24691 ft | 375 kts | 351° |
| 2026-04-30 07:00 | 26.03801 | 113.45731 | 24689 ft | 373 kts | 351° |
| 2026-04-30 07:00 | 26.06371 | 113.45625 | 24692 ft | 374 kts | 351° |
| 2026-04-30 07:00 | 26.08975 | 113.45522 | 24692 ft | 374 kts | 351° |
| 2026-04-30 07:00 | 26.11595 | 113.45418 | 24692 ft | 375 kts | 352° |
| 2026-04-30 07:01 | 26.14215 | 113.45317 | 24693 ft | 374 kts | 352° |
| 2026-04-30 07:01 | 26.16833 | 113.45216 | 24693 ft | 374 kts | 352° |
| 2026-04-30 07:01 | 26.19412 | 113.45117 | 24695 ft | 374 kts | 351° |
| 2026-04-30 07:01 | 26.22019 | 113.45017 | 24695 ft | 373 kts | 352° |
| 2026-04-30 07:02 | 26.24596 | 113.44920 | 24695 ft | 371 kts | 351° |
| 2026-04-30 07:02 | 26.27189 | 113.44820 | 24696 ft | 372 kts | 352° |
| 2026-04-30 07:02 | 26.29797 | 113.44720 | 24693 ft | 371 kts | 351° |
| 2026-04-30 07:02 | 26.32385 | 113.44621 | 24693 ft | 371 kts | 352° |
| 2026-04-30 07:03 | 26.34975 | 113.44521 | 24693 ft | 371 kts | 352° |
| 2026-04-30 07:03 | 26.37555 | 113.44423 | 24690 ft | 371 kts | 352° |
| 2026-04-30 07:03 | 26.40142 | 113.44323 | 24689 ft | 372 kts | 352° |
| 2026-04-30 07:03 | 26.42741 | 113.44222 | 24688 ft | 373 kts | 351° |
| 2026-04-30 07:04 | 26.45312 | 113.44123 | 24687 ft | 373 kts | 352° |
| 2026-04-30 07:04 | 26.47914 | 113.44024 | 24685 ft | 371 kts | 352° |
| 2026-04-30 07:04 | 26.50509 | 113.43926 | 24684 ft | 370 kts | 351° |
| 2026-04-30 07:04 | 26.53058 | 113.43828 | 24683 ft | 370 kts | 351° |
| 2026-04-30 07:05 | 26.58252 | 113.43627 | 24682 ft | 370 kts | 352° |
| 2026-04-30 07:05 | 26.60823 | 113.43528 | 24683 ft | 371 kts | 351° |
| 2026-04-30 07:05 | 26.63390 | 113.43430 | 24682 ft | 370 kts | 352° |
| 2026-04-30 07:06 | 26.65973 | 113.43333 | 24680 ft | 369 kts | 351° |
| 2026-04-30 07:06 | 26.68566 | 113.43233 | 24681 ft | 370 kts | 351° |
| 2026-04-30 07:06 | 26.71127 | 113.43134 | 24682 ft | 369 kts | 351° |
| 2026-04-30 07:06 | 26.73710 | 113.43035 | 24680 ft | 369 kts | 351° |
| 2026-04-30 07:07 | 26.76301 | 113.42935 | 24681 ft | 370 kts | 351° |
| 2026-04-30 07:07 | 26.78839 | 113.42838 | 24681 ft | 368 kts | 351° |
| 2026-04-30 07:07 | 26.81404 | 113.42739 | 24684 ft | 369 kts | 351° |
| 2026-04-30 07:07 | 26.84012 | 113.42637 | 24683 ft | 370 kts | 351° |
| 2026-04-30 07:08 | 26.86592 | 113.42539 | 24686 ft | 369 kts | 351° |
| 2026-04-30 07:08 | 26.89169 | 113.42440 | 24686 ft | 368 kts | 351° |
| 2026-04-30 07:08 | 26.91756 | 113.42340 | 24687 ft | 370 kts | 351° |
| 2026-04-30 07:08 | 26.94309 | 113.42241 | 24687 ft | 368 kts | 351° |
| 2026-04-30 07:09 | 26.96855 | 113.42144 | 24688 ft | 366 kts | 351° |
| 2026-04-30 07:09 | 26.99443 | 113.42046 | 24692 ft | 368 kts | 351° |
| 2026-04-30 07:09 | 27.02005 | 113.41946 | 24688 ft | 367 kts | 351° |
| 2026-04-30 07:09 | 27.04542 | 113.41849 | 24687 ft | 366 kts | 351° |
| 2026-04-30 07:10 | 27.07111 | 113.41748 | 24688 ft | 367 kts | 351° |
| 2026-04-30 07:10 | 27.09651 | 113.41650 | 24685 ft | 366 kts | 351° |
| 2026-04-30 07:10 | 27.12223 | 113.41550 | 24687 ft | 367 kts | 351° |
| 2026-04-30 07:10 | 27.14759 | 113.41452 | 24686 ft | 366 kts | 351° |
| 2026-04-30 07:11 | 27.17342 | 113.41352 | 24685 ft | 366 kts | 351° |
| 2026-04-30 07:11 | 27.19878 | 113.41254 | 24684 ft | 365 kts | 351° |
| 2026-04-30 07:11 | 27.22430 | 113.41157 | 24683 ft | 365 kts | 351° |
| 2026-04-30 07:11 | 27.24948 | 113.41058 | 24683 ft | 365 kts | 351° |
| 2026-04-30 07:12 | 27.27499 | 113.40957 | 24682 ft | 367 kts | 351° |
| 2026-04-30 07:12 | 27.30046 | 113.40857 | 24681 ft | 365 kts | 351° |
| 2026-04-30 07:12 | 27.32589 | 113.40760 | 24682 ft | 364 kts | 351° |
| 2026-04-30 07:12 | 27.35141 | 113.40713 | 24681 ft | 367 kts | 353° |
| 2026-04-30 07:13 | 27.37715 | 113.40746 | 24683 ft | 368 kts | 354° |
| 2026-04-30 07:13 | 27.40281 | 113.40816 | 24682 ft | 367 kts | 354° |
| 2026-04-30 07:13 | 27.42825 | 113.40894 | 24682 ft | 367 kts | 354° |
| 2026-04-30 07:13 | 27.45388 | 113.40965 | 24680 ft | 367 kts | 354° |
| 2026-04-30 07:14 | 27.47924 | 113.41028 | 24682 ft | 368 kts | 354° |
| 2026-04-30 07:14 | 27.50493 | 113.41087 | 24679 ft | 365 kts | 354° |
| 2026-04-30 07:14 | 27.53046 | 113.41143 | 24680 ft | 365 kts | 354° |
| 2026-04-30 07:14 | 27.55570 | 113.41194 | 24680 ft | 366 kts | 354° |
| 2026-04-30 07:15 | 27.58122 | 113.41245 | 24681 ft | 366 kts | 353° |
| 2026-04-30 07:15 | 27.60674 | 113.41295 | 24680 ft | 366 kts | 353° |
| 2026-04-30 07:15 | 27.63218 | 113.41347 | 24680 ft | 364 kts | 353° |
| 2026-04-30 07:15 | 27.65759 | 113.41401 | 24680 ft | 366 kts | 354° |
| 2026-04-30 07:16 | 27.68311 | 113.41537 | 24680 ft | 367 kts | 356° |
| 2026-04-30 07:16 | 27.70874 | 113.41759 | 24680 ft | 367 kts | 357° |
| 2026-04-30 07:16 | 27.73416 | 113.42007 | 24683 ft | 369 kts | 357° |
| 2026-04-30 07:16 | 27.75948 | 113.42261 | 24681 ft | 366 kts | 358° |
| 2026-04-30 07:17 | 27.78494 | 113.42512 | 24681 ft | 365 kts | 357° |
| 2026-04-30 07:17 | 27.81044 | 113.42756 | 24682 ft | 366 kts | 357° |
| 2026-04-30 07:17 | 27.86112 | 113.43220 | 24684 ft | 364 kts | 357° |
| 2026-04-30 07:18 | 27.88633 | 113.43448 | 24684 ft | 364 kts | 356° |
| 2026-04-30 07:18 | 27.91189 | 113.43675 | 24687 ft | 366 kts | 356° |
| 2026-04-30 07:18 | 27.93717 | 113.43897 | 24688 ft | 363 kts | 356° |
| 2026-04-30 07:18 | 27.96232 | 113.44121 | 24690 ft | 363 kts | 356° |
| 2026-04-30 07:19 | 27.98740 | 113.44338 | 24692 ft | 364 kts | 356° |
| 2026-04-30 07:19 | 28.01280 | 113.44558 | 24693 ft | 365 kts | 356° |
| 2026-04-30 07:19 | 28.03813 | 113.44778 | 24693 ft | 363 kts | 356° |
| 2026-04-30 07:19 | 28.06337 | 113.45000 | 24692 ft | 363 kts | 356° |
| 2026-04-30 07:20 | 28.08846 | 113.45218 | 24689 ft | 362 kts | 356° |
| 2026-04-30 07:20 | 28.11371 | 113.45426 | 24690 ft | 361 kts | 356° |
| 2026-04-30 07:20 | 28.13861 | 113.45609 | 24691 ft | 360 kts | 355° |
| 2026-04-30 07:20 | 28.16385 | 113.45783 | 24690 ft | 360 kts | 355° |
| 2026-04-30 07:21 | 28.18905 | 113.45955 | 24688 ft | 362 kts | 355° |
| 2026-04-30 07:21 | 28.21423 | 113.46126 | 24688 ft | 363 kts | 355° |
| 2026-04-30 07:21 | 28.23923 | 113.46301 | 24689 ft | 361 kts | 355° |
| 2026-04-30 07:21 | 28.26422 | 113.46482 | 24681 ft | 360 kts | 355° |
| 2026-04-30 07:22 | 28.31462 | 113.46841 | 24689 ft | 363 kts | 355° |
| 2026-04-30 07:22 | 28.34001 | 113.47021 | 24688 ft | 363 kts | 355° |
| 2026-04-30 07:22 | 28.36502 | 113.47201 | 24686 ft | 361 kts | 355° |
| 2026-04-30 07:23 | 28.38982 | 113.47382 | 24683 ft | 359 kts | 355° |
| 2026-04-30 07:23 | 28.41486 | 113.47560 | 24682 ft | 361 kts | 355° |
| 2026-04-30 07:23 | 28.44010 | 113.47739 | 24678 ft | 363 kts | 355° |
| 2026-04-30 07:23 | 28.46554 | 113.47920 | 24679 ft | 361 kts | 355° |
| 2026-04-30 07:24 | 28.49049 | 113.48101 | 24682 ft | 360 kts | 355° |
| 2026-04-30 07:24 | 28.51532 | 113.48280 | 24681 ft | 360 kts | 355° |
| 2026-04-30 07:24 | 28.54041 | 113.48460 | 24679 ft | 359 kts | 355° |
| 2026-04-30 07:24 | 28.56521 | 113.48637 | 24684 ft | 360 kts | 355° |
| 2026-04-30 07:25 | 28.59057 | 113.48815 | 24681 ft | 359 kts | 355° |
| 2026-04-30 07:25 | 28.61538 | 113.48993 | 24681 ft | 358 kts | 355° |
| 2026-04-30 07:25 | 28.64043 | 113.49172 | 24680 ft | 360 kts | 355° |
| 2026-04-30 07:25 | 28.66522 | 113.49349 | 24677 ft | 359 kts | 355° |
| 2026-04-30 07:26 | 28.69029 | 113.49529 | 24674 ft | 357 kts | 355° |
| 2026-04-30 07:26 | 28.71490 | 113.49708 | 24676 ft | 356 kts | 355° |
| 2026-04-30 07:26 | 28.73995 | 113.49886 | 24679 ft | 359 kts | 355° |
| 2026-04-30 07:26 | 28.76463 | 113.50063 | 24675 ft | 358 kts | 355° |
| 2026-04-30 07:27 | 28.78958 | 113.50245 | 24671 ft | 354 kts | 355° |
| 2026-04-30 07:27 | 28.81414 | 113.50423 | 24678 ft | 358 kts | 355° |
| 2026-04-30 07:27 | 28.83895 | 113.50599 | 24681 ft | 358 kts | 355° |
| 2026-04-30 07:27 | 28.86388 | 113.50777 | 24674 ft | 357 kts | 355° |
| 2026-04-30 07:28 | 28.88874 | 113.50956 | 24675 ft | 357 kts | 355° |
| 2026-04-30 07:28 | 28.91357 | 113.51135 | 24672 ft | 356 kts | 355° |
| 2026-04-30 07:28 | 28.93818 | 113.51313 | 24672 ft | 355 kts | 355° |
| 2026-04-30 07:28 | 28.96290 | 113.51492 | 24673 ft | 355 kts | 355° |
| 2026-04-30 07:29 | 28.98743 | 113.51666 | 24670 ft | 354 kts | 355° |
| 2026-04-30 07:29 | 29.01218 | 113.51846 | 24671 ft | 353 kts | 355° |
| 2026-04-30 07:29 | 29.03679 | 113.52023 | 24670 ft | 353 kts | 355° |
| 2026-04-30 07:29 | 29.06157 | 113.52201 | 24674 ft | 356 kts | 355° |
| 2026-04-30 07:30 | 29.11110 | 113.52557 | 24676 ft | 356 kts | 355° |
| 2026-04-30 07:30 | 29.13560 | 113.52736 | 24670 ft | 354 kts | 355° |
| 2026-04-30 07:30 | 29.16061 | 113.52915 | 24678 ft | 357 kts | 355° |
| 2026-04-30 07:31 | 29.18537 | 113.53092 | 24683 ft | 357 kts | 355° |
| 2026-04-30 07:31 | 29.20987 | 113.53271 | 24671 ft | 352 kts | 355° |
| 2026-04-30 07:31 | 29.23426 | 113.53450 | 24675 ft | 354 kts | 355° |
| 2026-04-30 07:31 | 29.25922 | 113.53627 | 24673 ft | 357 kts | 355° |
| 2026-04-30 07:32 | 29.28407 | 113.53804 | 24677 ft | 355 kts | 355° |
| 2026-04-30 07:32 | 29.30831 | 113.53996 | 24674 ft | 351 kts | 355° |
| 2026-04-30 07:32 | 29.33303 | 113.54209 | 24680 ft | 355 kts | 355° |
| 2026-04-30 07:32 | 29.35773 | 113.54425 | 24672 ft | 357 kts | 355° |
| 2026-04-30 07:33 | 29.38227 | 113.54643 | 24670 ft | 353 kts | 356° |
| 2026-04-30 07:33 | 29.40694 | 113.54864 | 24676 ft | 354 kts | 355° |
| 2026-04-30 07:33 | 29.43141 | 113.55079 | 24668 ft | 354 kts | 355° |
| 2026-04-30 07:33 | 29.45598 | 113.55293 | 24671 ft | 353 kts | 356° |
| 2026-04-30 07:34 | 29.48060 | 113.55511 | 24661 ft | 347 kts | 355° |
| 2026-04-30 07:34 | 29.50449 | 113.55726 | 24582 ft | 339 kts | 355° |
| 2026-04-30 07:34 | 29.52752 | 113.55933 | 24295 ft | 331 kts | 355° |
| 2026-04-30 07:34 | 29.55039 | 113.56135 | 23918 ft | 327 kts | 355° |
| 2026-04-30 07:35 | 29.57299 | 113.56329 | 23511 ft | 323 kts | 355° |
| 2026-04-30 07:35 | 29.59516 | 113.56520 | 23113 ft | 320 kts | 355° |
| 2026-04-30 07:35 | 29.61746 | 113.56711 | 22720 ft | 316 kts | 355° |
| 2026-04-30 07:35 | 29.63945 | 113.56900 | 22320 ft | 313 kts | 355° |
| 2026-04-30 07:36 | 29.66085 | 113.57084 | 21929 ft | 310 kts | 355° |
| 2026-04-30 07:36 | 29.68234 | 113.57269 | 21545 ft | 307 kts | 356° |
| 2026-04-30 07:36 | 29.70366 | 113.57455 | 21153 ft | 305 kts | 356° |
| 2026-04-30 07:36 | 29.72452 | 113.57636 | 20767 ft | 302 kts | 356° |
| 2026-04-30 07:37 | 29.74559 | 113.57819 | 20383 ft | 302 kts | 356° |
| 2026-04-30 07:37 | 29.76690 | 113.57996 | 19990 ft | 315 kts | 357° |
| 2026-04-30 07:37 | 29.78905 | 113.58180 | 19567 ft | 319 kts | 358° |
| 2026-04-30 07:37 | 29.81100 | 113.58373 | 19165 ft | 316 kts | 358° |
| 2026-04-30 07:38 | 29.83279 | 113.58568 | 18747 ft | 313 kts | 359° |
| 2026-04-30 07:38 | 29.85441 | 113.58762 | 18339 ft | 310 kts | 359° |
| 2026-04-30 07:38 | 29.87574 | 113.58951 | 17934 ft | 307 kts | 359° |
| 2026-04-30 07:38 | 29.89695 | 113.59137 | 17536 ft | 303 kts | 359° |
| 2026-04-30 07:39 | 29.91786 | 113.59322 | 17138 ft | 301 kts | 360° |
| 2026-04-30 07:39 | 29.93860 | 113.59612 | 16743 ft | 301 kts | 5° |
| 2026-04-30 07:39 | 29.95886 | 113.60215 | 16355 ft | 303 kts | 13° |
| 2026-04-30 07:39 | 29.97865 | 113.61094 | 15959 ft | 303 kts | 18° |
| 2026-04-30 07:40 | 29.99783 | 113.62071 | 15559 ft | 302 kts | 19° |
| 2026-04-30 07:40 | 30.01691 | 113.63070 | 15152 ft | 301 kts | 19° |
| 2026-04-30 07:40 | 30.03600 | 113.64057 | 14770 ft | 299 kts | 19° |
| 2026-04-30 07:40 | 30.05501 | 113.65022 | 14361 ft | 297 kts | 20° |
| 2026-04-30 07:41 | 30.07391 | 113.65970 | 13974 ft | 295 kts | 20° |
| 2026-04-30 07:41 | 30.09271 | 113.66908 | 13589 ft | 293 kts | 20° |
| 2026-04-30 07:41 | 30.11142 | 113.67840 | 13199 ft | 292 kts | 20° |
| 2026-04-30 07:41 | 30.12128 | 113.68332 | 12993 ft | 291 kts | 20° |